Pagina principale
METAR-TAF:

METAR-TAF

Aeroporti :

Aeroporto di Parigi-Le Bourget

Parigi, Francia

latitudine: 48-58N, longitudine: 002-27E, altezza: 66 m

Osservazione

Il bollettino è stato emesso 18 minuti fa, alle 12:30 UTC
Vento 8 kt da ovest/sud-ovest, variando fra sud e ovest
Temperature 20°C
Umidità 56%
Pressione 1021 hPa
Visibilità 10 km o più
Nuvoloso ad un'altezza di 3800 ft
Nuvoloso ad un'altezza di 4900 ft
Nuvoloso ad un'altezza di 6200 ft

METAR: LFPB 161230Z AUTO 24008KT 190V280 9999 BKN038 BKN049 BKN062 20/11 Q1021 NOSIG

Ora: 14:48 (12:48 UTC)

Previsione

Il bollettino è stato emesso 1 ora e 48 minuti fa, alle 11:00 UTC
Previsione valida dal 16 alle 12 UTC al 17 alle 12 UTC
Vento 10 kt da sud/sud-ovest
Visibilità 10 km o più
Nubi sparse ad un'altezza di 3500 ft
Evoluzione graduale
dal 16 alle 19 UTC al 16 alle 22 UTC
Vento 5 kt da sud/sud-est

TAF: LFPB 161100Z 1612/1712 21010KT 9999 SCT035 BECMG 1619/1622 15005KT

Osservazioni e previsioni meteorologiche di più di 4000 aeroporti (messaggi METAR e TAF).

Le stazioni disponibili sono rappresentate dai dischi gialli e rossi sulla carta.

Puntare il mouse per vedere il nome della stazione.

Clicca sopra per visualizzare le osservazioni e previsioni meteorologiche.

Per cambiare la mappa : fare clic sui pulsanti verdi con una croce nera per ingrandire, il pulsante verde con un trattino per diminuire, o sulla freccia verde per le mappe adiacenti.


METAR-TAF: